Time;durP1;ratioP1;P1;durP2;ratioP2;P2;SDS_P1;SDS_P2;PMS_P1;PMS_P2;Temp;Humidity;BMP_temperature;BMP_pressure;BME280_temperature;BME280_humidity;BME280_pressure;Samples;Min_cycle;Max_cycle;Signal;HPM_P1;HPM_P2
2022/08/04 00:00:15;;;;;;;7.25;6.85;;;20.70;99.90;;;;;;4995657;28;20198;-79
2022/08/04 00:03:05;;;;;;;8.80;8.40;;;20.70;99.90;;;;;;5012622;28;20200;-79
2022/08/04 00:05:46;;;;;;;6.93;6.53;;;20.60;99.90;;;;;;4995408;28;20179;-79
2022/08/04 00:08:43;;;;;;;12.90;11.95;;;20.60;99.90;;;;;;5014099;28;20246;-79
2022/08/04 00:11:13;;;;;;;14.55;13.80;;;20.50;99.90;;;;;;5026452;28;20187;-79
2022/08/04 00:13:44;;;;;;;9.07;8.68;;;20.60;99.90;;;;;;5016118;28;20203;-79
2022/08/04 00:16:12;;;;;;;33.72;31.98;;;20.50;99.90;;;;;;5016979;28;20553;-79
2022/08/04 00:18:47;;;;;;;38.55;36.75;;;20.50;99.90;;;;;;5019441;28;20214;-79
2022/08/04 00:21:15;;;;;;;66.03;62.70;;;20.40;99.90;;;;;;5018547;28;20652;-79
2022/08/04 00:23:43;;;;;;;72.15;68.40;;;20.40;99.90;;;;;;5016989;28;20558;-79
2022/08/04 00:26:09;;;;;;;75.65;71.95;;;20.30;99.90;;;;;;5016941;28;20175;-79
2022/08/04 00:28:37;;;;;;;56.33;53.63;;;20.40;99.90;;;;;;5016367;28;20656;-79
2022/08/04 00:31:09;;;;;;;50.97;48.33;;;20.30;99.90;;;;;;5016480;28;20188;-79
2022/08/04 00:33:42;;;;;;;95.43;90.80;;;20.30;99.90;;;;;;5016796;28;20499;-79
2022/08/04 00:36:10;;;;;;;153.07;145.75;;;20.20;99.90;;;;;;4998830;28;20188;-79
2022/08/04 00:38:39;;;;;;;180.23;171.18;;;20.10;99.90;;;;;;5017919;28;20203;-79
2022/08/04 00:41:18;;;;;;;166.48;158.30;;;20.10;99.90;;;;;;5000419;28;20207;-79
2022/08/04 00:44:19;;;;;;;168.20;160.18;;;20.10;99.90;;;;;;5016774;28;20580;-79
2022/08/04 00:47:14;;;;;;;199.10;189.43;;;20.10;99.90;;;;;;5016110;28;20443;-79
2022/08/04 00:50:08;;;;;;;144.02;136.82;;;20.00;99.90;;;;;;5016128;28;20192;-79
2022/08/04 00:52:55;;;;;;;107.47;102.25;;;19.90;99.90;;;;;;5016098;28;20204;-79
2022/08/04 00:55:53;;;;;;;86.38;82.15;;;19.80;99.90;;;;;;5015836;28;20184;-79
2022/08/04 00:58:22;;;;;;;58.53;55.65;;;19.70;99.90;;;;;;5014713;28;20199;-79
2022/08/04 01:01:26;;;;;;;41.38;39.17;;;19.60;99.90;;;;;;4998732;28;20175;-79
2022/08/04 01:04:23;;;;;;;48.15;45.80;;;19.40;99.90;;;;;;5015857;28;20580;-79
2022/08/04 01:07:00;;;;;;;18.92;17.88;;;19.40;99.90;;;;;;5015320;28;20214;-79
2022/08/04 01:09:57;;;;;;;14.80;13.98;;;19.40;99.90;;;;;;4998241;28;20184;-79
2022/08/04 01:12:42;;;;;;;19.10;18.17;;;19.50;99.90;;;;;;4998075;28;20250;-79
2022/08/04 01:15:31;;;;;;;13.68;12.85;;;19.50;99.90;;;;;;5006216;28;20190;-79
2022/08/04 01:18:05;;;;;;;18.40;17.40;;;19.50;99.90;;;;;;5019122;28;20184;-79
2022/08/04 01:20:47;;;;;;;19.05;18.08;;;19.50;99.90;;;;;;5014963;28;20591;-79
2022/08/04 01:23:39;;;;;;;19.73;18.63;;;19.50;99.90;;;;;;5046611;23;20234;-82
2022/08/04 01:26:23;;;;;;;21.80;20.73;;;19.40;99.90;;;;;;5021486;28;20186;-81
2022/08/04 01:29:11;;;;;;;18.17;17.38;;;19.40;99.90;;;;;;5019925;28;20730;-83
2022/08/04 01:32:01;;;;;;;18.40;17.52;;;19.40;99.90;;;;;;5039242;28;20187;-82
2022/08/04 01:34:34;;;;;;;19.15;18.20;;;19.40;99.90;;;;;;5001063;28;20241;-81
2022/08/04 01:37:06;;;;;;;19.50;18.38;;;19.30;99.90;;;;;;5017550;28;20188;-82
2022/08/04 01:39:43;;;;;;;18.52;17.40;;;19.30;99.90;;;;;;5000206;28;20211;-82
2022/08/04 01:42:10;;;;;;;15.40;14.27;;;19.20;99.90;;;;;;5000727;28;20179;-82
2022/08/04 01:44:39;;;;;;;12.43;11.82;;;19.10;99.90;;;;;;5019369;28;20175;-82
2022/08/04 01:47:07;;;;;;;14.43;13.75;;;19.10;99.90;;;;;;5004041;28;20551;-82
2022/08/04 01:49:36;;;;;;;24.27;22.85;;;19.10;99.90;;;;;;5003545;28;20190;-82
2022/08/04 01:52:06;;;;;;;14.07;13.15;;;19.00;99.90;;;;;;5002200;28;20211;-81
2022/08/04 01:54:35;;;;;;;11.32;10.57;;;19.00;99.90;;;;;;5001784;28;20180;-80
2022/08/04 01:57:05;;;;;;;9.68;9.18;;;19.00;99.90;;;;;;5017587;28;20483;-80
2022/08/04 01:59:33;;;;;;;10.20;9.70;;;19.10;99.90;;;;;;5018370;28;20200;-81
2022/08/04 02:01:59;;;;;;;8.98;8.48;;;19.10;99.90;;;;;;5018170;28;20175;-80
2022/08/04 02:04:24;;;;;;;8.60;8.02;;;19.10;99.90;;;;;;5000546;28;20182;-81
2022/08/04 02:07:16;;;;;;;7.93;7.47;;;19.10;99.90;;;;;;5023196;28;20183;-82
2022/08/04 02:09:57;;;;;;;8.73;8.15;;;19.10;99.90;;;;;;4983162;28;20545;-82
2022/08/04 02:12:42;;;;;;;8.30;7.90;;;19.00;99.90;;;;;;5004069;28;20286;-83
2022/08/04 02:15:34;;;;;;;7.53;7.13;;;19.00;99.90;;;;;;5003206;28;20247;-81
2022/08/04 02:18:22;;;;;;;7.13;6.68;;;19.00;99.90;;;;;;5001973;28;20222;-82
2022/08/04 02:20:54;;;;;;;7.20;6.82;;;19.00;99.90;;;;;;5025407;28;20191;-80
2022/08/04 02:23:52;;;;;;;7.50;6.93;;;18.90;99.90;;;;;;5004933;28;20214;-82
2022/08/04 02:26:24;;;;;;;10.07;9.38;;;18.80;99.90;;;;;;5004471;28;20396;-80
2022/08/04 02:29:11;;;;;;;14.40;13.57;;;18.60;99.90;;;;;;5028075;28;20188;-80
2022/08/04 02:31:58;;;;;;;10.77;10.23;;;18.60;99.90;;;;;;5009184;28;20222;-82
2022/08/04 02:34:46;;;;;;;10.55;10.05;;;18.70;99.90;;;;;;5004482;28;20180;-81
2022/08/04 02:37:16;;;;;;;9.13;8.65;;;18.70;99.90;;;;;;5001236;28;20239;-81
2022/08/04 02:39:43;;;;;;;8.40;8.00;;;18.70;99.90;;;;;;5024805;28;20207;-81
2022/08/04 02:42:11;;;;;;;7.35;6.95;;;18.60;99.90;;;;;;5026798;28;20274;-82
2022/08/04 02:44:38;;;;;;;7.70;7.15;;;18.60;99.90;;;;;;5019764;28;20421;-82
2022/08/04 02:47:06;;;;;;;7.10;6.60;;;18.60;99.90;;;;;;5003574;28;20412;-80
2022/08/04 02:49:36;;;;;;;7.45;6.95;;;18.60;99.90;;;;;;5005511;28;20179;-82
2022/08/04 02:52:03;;;;;;;8.45;7.93;;;18.60;99.90;;;;;;5017908;28;20215;-81
2022/08/04 02:54:36;;;;;;;10.82;10.25;;;18.50;99.90;;;;;;5019387;28;20279;-82
2022/08/04 02:57:07;;;;;;;16.80;15.80;;;18.50;99.90;;;;;;5019622;28;20456;-82
2022/08/04 02:59:41;;;;;;;25.00;23.80;;;18.50;99.90;;;;;;5018849;28;20207;-81
2022/08/04 03:02:06;;;;;;;31.27;29.77;;;18.50;99.90;;;;;;5003291;28;20183;-80
2022/08/04 03:04:42;;;;;;;34.00;32.33;;;18.50;99.90;;;;;;5019188;28;20302;-80
2022/08/04 03:07:19;;;;;;;37.17;35.42;;;18.50;99.90;;;;;;5001334;28;20636;-82
2022/08/04 03:10:07;;;;;;;39.00;36.45;;;18.50;99.90;;;;;;5008166;28;20183;-80
2022/08/04 03:13:04;;;;;;;41.80;39.63;;;18.40;99.90;;;;;;5000991;28;20589;-82
2022/08/04 03:15:51;;;;;;;39.78;37.88;;;18.40;99.90;;;;;;5018542;28;20176;-83
2022/08/04 03:18:26;;;;;;;35.70;33.90;;;18.30;99.90;;;;;;5019401;28;20188;-82
2022/08/04 03:21:20;;;;;;;42.83;40.72;;;18.30;99.90;;;;;;5003668;28;20258;-81
2022/08/04 03:24:11;;;;;;;28.58;26.77;;;18.20;99.90;;;;;;5017746;28;20716;-82
2022/08/04 03:26:37;;;;;;;25.60;24.27;;;18.20;99.90;;;;;;5000840;28;20188;-81
2022/08/04 03:29:38;;;;;;;16.55;15.65;;;18.20;99.90;;;;;;4999831;28;20680;-80
2022/08/04 03:32:03;;;;;;;16.00;15.23;;;18.20;99.90;;;;;;5017415;28;20183;-80
2022/08/04 03:34:35;;;;;;;16.45;15.50;;;18.10;99.90;;;;;;4999973;28;20194;-82
2022/08/04 03:37:22;;;;;;;15.27;14.52;;;18.00;99.90;;;;;;5001968;28;20180;-83
2022/08/04 03:40:12;;;;;;;16.52;15.65;;;18.10;99.90;;;;;;5003314;28;20226;-83
2022/08/04 03:42:57;;;;;;;16.00;15.07;;;18.00;99.90;;;;;;5020466;28;20196;-82
2022/08/04 03:45:33;;;;;;;17.20;15.85;;;18.10;99.90;;;;;;5011931;28;20191;-82
2022/08/04 03:48:06;;;;;;;17.40;16.53;;;18.20;99.90;;;;;;5016369;28;20187;-83
2022/08/04 03:54:03;;;;;;;19.90;18.73;;;18.10;99.90;;;;;;5019414;28;20583;-83
2022/08/04 03:57:07;;;;;;;21.63;20.05;;;18.10;99.90;;;;;;5001480;28;20629;-83
2022/08/04 03:59:50;;;;;;;23.90;22.60;;;18.10;99.90;;;;;;5003556;28;20367;-83
2022/08/04 04:02:34;;;;;;;23.70;22.42;;;18.00;99.90;;;;;;5000683;28;20176;-83
2022/08/04 04:05:19;;;;;;;24.67;23.20;;;18.00;99.90;;;;;;5005538;28;20261;-82
2022/08/04 04:08:09;;;;;;;28.42;26.90;;;18.00;99.90;;;;;;5000484;28;20205;-84
2022/08/04 04:10:56;;;;;;;30.33;28.33;;;17.90;99.90;;;;;;5001130;28;20215;-83
2022/08/04 04:13:45;;;;;;;34.97;33.10;;;17.90;99.90;;;;;;5000157;28;20204;-82
2022/08/04 04:16:35;;;;;;;32.70;31.00;;;17.80;99.90;;;;;;5018621;28;20183;-83
2022/08/04 04:19:23;;;;;;;35.33;32.77;;;17.80;99.90;;;;;;5015951;28;20235;-83
2022/08/04 04:22:13;;;;;;;34.10;32.17;;;17.80;99.90;;;;;;5001590;28;20183;-81
2022/08/04 04:25:08;;;;;;;35.47;33.17;;;17.80;99.90;;;;;;5012937;28;20188;-81
2022/08/04 04:27:46;;;;;;;32.07;30.13;;;17.90;99.90;;;;;;5001456;28;20180;-83
2022/08/04 04:30:34;;;;;;;31.40;29.67;;;17.90;99.90;;;;;;5002181;28;20184;-82
2022/08/04 04:33:16;;;;;;;35.83;33.73;;;18.00;99.90;;;;;;5000768;28;20204;-82
2022/08/04 04:36:00;;;;;;;34.27;31.87;;;18.10;99.90;;;;;;5022685;28;20634;-83
2022/08/04 04:38:41;;;;;;;42.83;40.57;;;18.10;99.90;;;;;;5001319;28;20187;-83
2022/08/04 04:41:10;;;;;;;60.27;57.10;;;18.20;99.90;;;;;;5000035;28;20218;-82
2022/08/04 04:43:48;;;;;;;71.93;68.25;;;18.20;99.90;;;;;;5017537;28;20275;-82
2022/08/04 04:46:20;;;;;;;81.70;77.65;;;18.30;99.90;;;;;;5003260;28;20176;-83
2022/08/04 04:48:59;;;;;;;111.55;106.00;;;18.40;99.90;;;;;;5007636;28;20234;-82
2022/08/04 04:51:36;;;;;;;125.57;119.28;;;18.50;99.90;;;;;;5019151;28;20191;-83
2022/08/04 04:54:31;;;;;;;158.48;150.13;;;18.60;99.90;;;;;;5017437;28;20233;-82
2022/08/04 04:57:13;;;;;;;192.48;182.63;;;18.60;99.90;;;;;;5001679;28;20187;-84
2022/08/04 04:59:56;;;;;;;227.18;215.20;;;18.80;99.90;;;;;;5003363;28;20215;-82
2022/08/04 05:02:59;;;;;;;261.02;247.80;;;18.80;99.90;;;;;;5020422;28;20326;-83
2022/08/04 05:05:32;;;;;;;240.88;228.82;;;19.00;99.90;;;;;;5024922;28;20179;-82
2022/08/04 05:08:13;;;;;;;162.30;152.82;;;19.10;99.90;;;;;;5034816;28;20243;-81
2022/08/04 05:10:50;;;;;;;30.52;28.80;;;19.30;99.90;;;;;;5018983;28;20183;-82
2022/08/04 05:13:18;;;;;;;14.10;13.23;;;19.50;99.90;;;;;;5034961;28;20187;-82
2022/08/04 05:15:48;;;;;;;133.65;126.88;;;19.80;99.90;;;;;;5017000;28;20247;-82
2022/08/04 05:18:21;;;;;;;150.57;142.80;;;20.10;99.90;;;;;;5014684;28;20203;-82
2022/08/04 05:21:07;;;;;;;66.97;63.00;;;20.60;99.90;;;;;;5008223;28;20198;-83
2022/08/04 05:23:36;;;;;;;13.38;11.00;;;21.30;99.90;;;;;;5004320;28;20218;-82
2022/08/04 05:26:13;;;;;;;8.75;8.05;;;22.00;99.90;;;;;;5003089;28;20209;-83
2022/08/04 05:28:44;;;;;;;14.70;13.32;;;22.60;99.90;;;;;;5021349;28;20229;-82
2022/08/04 05:31:13;;;;;;;14.27;10.50;;;23.20;99.90;;;;;;5022868;28;20198;-82
2022/08/04 05:33:44;;;;;;;27.13;25.60;;;23.60;99.90;;;;;;5021657;28;20195;-82
2022/08/04 05:36:17;;;;;;;31.00;29.17;;;24.10;99.90;;;;;;5020998;28;20183;-81
2022/08/04 05:38:46;;;;;;;14.65;13.80;;;24.60;99.90;;;;;;5002804;28;20224;-81
2022/08/04 05:41:13;;;;;;;7.03;6.70;;;24.90;99.90;;;;;;5002706;28;20176;-82
2022/08/04 05:43:43;;;;;;;12.10;11.40;;;25.30;99.90;;;;;;5002422;28;20203;-82
2022/08/04 05:46:11;;;;;;;12.23;11.25;;;25.50;99.90;;;;;;5002182;28;20279;-80
2022/08/04 05:48:37;;;;;;;22.48;21.38;;;25.80;99.90;;;;;;5000608;28;20266;-82
2022/08/04 05:51:04;;;;;;;5.70;5.40;;;26.30;99.90;;;;;;5018710;28;20192;-80
2022/08/04 05:53:31;;;;;;;4.65;4.40;;;26.50;99.90;;;;;;5018871;28;20204;-80
2022/08/04 05:55:59;;;;;;;6.55;5.90;;;26.70;99.90;;;;;;5002047;28;20191;-81
2022/08/04 05:58:29;;;;;;;6.07;5.70;;;27.10;99.90;;;;;;5002302;28;20194;-81
2022/08/04 06:01:00;;;;;;;6.22;5.82;;;27.30;99.90;;;;;;5002108;28;20230;-81
2022/08/04 06:03:29;;;;;;;9.18;8.43;;;27.50;99.90;;;;;;5001255;28;20208;-80
2022/08/04 06:05:57;;;;;;;17.83;16.75;;;27.60;99.80;;;;;;5001664;28;20195;-82
2022/08/04 06:08:24;;;;;;;19.50;18.23;;;27.90;98.90;;;;;;4999729;28;20226;-82
2022/08/04 06:10:51;;;;;;;17.98;16.98;;;28.20;98.40;;;;;;5020707;28;20179;-82
2022/08/04 06:13:24;;;;;;;20.02;19.00;;;28.30;97.10;;;;;;5003309;28;20569;-82
2022/08/04 06:15:54;;;;;;;21.67;20.55;;;28.50;96.90;;;;;;5019658;28;20271;-81
2022/08/04 06:18:21;;;;;;;20.13;19.13;;;29.10;95.10;;;;;;5018428;28;20233;-80
2022/08/04 06:20:50;;;;;;;20.85;19.77;;;29.10;93.60;;;;;;5018373;28;20179;-80
2022/08/04 06:23:19;;;;;;;20.13;18.77;;;28.90;94.10;;;;;;5003490;28;20219;-81
2022/08/04 06:25:59;;;;;;;16.50;15.23;;;29.00;93.30;;;;;;5001523;28;20278;-81
2022/08/04 06:28:26;;;;;;;21.10;20.10;;;28.90;93.40;;;;;;5018060;28;20230;-81
2022/08/04 06:30:54;;;;;;;13.23;12.52;;;29.00;92.90;;;;;;5000581;28;20230;-80
2022/08/04 06:33:26;;;;;;;19.45;18.25;;;29.30;92.60;;;;;;5021829;28;20207;-81
2022/08/04 06:35:56;;;;;;;14.30;13.27;;;29.50;92.00;;;;;;5025351;28;20190;-81
2022/08/04 06:38:26;;;;;;;14.40;13.40;;;29.80;91.40;;;;;;5023242;28;20632;-81
2022/08/04 06:40:54;;;;;;;6.63;6.20;;;30.10;91.30;;;;;;5020425;28;20207;-81
2022/08/04 06:43:21;;;;;;;5.50;5.13;;;30.20;90.50;;;;;;5002110;28;20200;-80
2022/08/04 06:45:48;;;;;;;8.60;8.18;;;30.60;90.10;;;;;;5019361;28;20176;-79
2022/08/04 06:48:16;;;;;;;17.80;16.70;;;30.90;87.50;;;;;;5021158;28;20179;-81
2022/08/04 06:50:48;;;;;;;28.65;27.13;;;30.90;87.00;;;;;;5001566;28;20176;-80
2022/08/04 06:53:15;;;;;;;30.02;28.30;;;31.20;86.60;;;;;;5002302;28;20206;-81
2022/08/04 06:55:46;;;;;;;43.83;41.50;;;31.40;85.90;;;;;;5021164;28;20207;-82
2022/08/04 06:58:15;;;;;;;47.42;44.85;;;31.60;84.70;;;;;;5002160;28;20180;-82
2022/08/04 07:00:44;;;;;;;33.03;31.08;;;31.90;82.00;;;;;;5001145;28;20234;-81
2022/08/04 07:03:10;;;;;;;21.30;20.30;;;32.10;81.60;;;;;;5017914;28;20258;-81
2022/08/04 07:05:37;;;;;;;38.47;36.25;;;32.30;79.20;;;;;;5001547;28;20644;-81
2022/08/04 07:08:03;;;;;;;36.60;34.53;;;32.70;78.10;;;;;;5000790;28;20274;-82
2022/08/04 07:10:30;;;;;;;66.38;62.80;;;32.90;77.50;;;;;;5018916;28;20180;-83
2022/08/04 07:12:57;;;;;;;98.70;93.82;;;33.30;74.70;;;;;;5018453;28;20219;-81
2022/08/04 07:15:24;;;;;;;154.45;147.00;;;32.90;74.50;;;;;;5018121;28;20180;-82
2022/08/04 07:17:51;;;;;;;240.90;228.98;;;33.10;72.90;;;;;;5016424;28;20194;-82
2022/08/04 07:20:18;;;;;;;220.98;210.18;;;32.90;71.50;;;;;;5017494;28;20681;-79
2022/08/04 07:22:47;;;;;;;129.32;122.88;;;33.00;71.80;;;;;;5022213;28;20699;-79
2022/08/04 07:25:14;;;;;;;100.35;95.68;;;32.70;71.60;;;;;;5003655;28;20191;-79
2022/08/04 07:27:41;;;;;;;22.70;21.55;;;32.50;71.70;;;;;;5019196;28;20179;-80
2022/08/04 07:30:08;;;;;;;19.48;18.55;;;32.10;72.90;;;;;;4999283;28;20214;-81
2022/08/04 07:32:35;;;;;;;11.40;10.65;;;32.30;72.30;;;;;;5018254;28;20203;-80
2022/08/04 07:35:03;;;;;;;15.75;14.90;;;32.30;72.60;;;;;;5020619;28;20184;-80
2022/08/04 07:37:30;;;;;;;41.17;39.22;;;32.60;72.40;;;;;;4998330;28;20184;-81
2022/08/04 07:39:56;;;;;;;111.75;106.35;;;33.30;70.90;;;;;;5016641;28;20633;-82
2022/08/04 07:42:22;;;;;;;305.35;289.70;;;33.80;68.90;;;;;;5016599;28;20250;-82
2022/08/04 07:44:48;;;;;;;441.30;417.23;;;34.20;66.80;;;;;;4999053;28;20652;-81
2022/08/04 07:47:14;;;;;;;473.63;447.00;;;34.50;65.70;;;;;;4997828;28;20180;-81
2022/08/04 07:49:41;;;;;;;433.83;409.75;;;34.70;65.60;;;;;;5016145;28;20194;-81
2022/08/04 07:52:08;;;;;;;437.85;413.88;;;34.80;63.90;;;;;;4998253;28;20194;-80
2022/08/04 07:54:35;;;;;;;373.20;353.20;;;34.80;62.80;;;;;;4998930;28;20199;-81
2022/08/04 07:57:02;;;;;;;394.17;373.00;;;34.60;61.60;;;;;;4998316;28;20266;-81
2022/08/04 07:59:28;;;;;;;390.38;369.27;;;34.20;62.30;;;;;;5015028;28;20380;-80
2022/08/04 08:01:57;;;;;;;411.48;389.30;;;34.10;62.30;;;;;;4999035;28;20180;-81
2022/08/04 08:04:24;;;;;;;415.40;392.80;;;33.70;62.30;;;;;;5018527;28;20178;-82
2022/08/04 08:06:50;;;;;;;414.75;392.23;;;34.00;61.70;;;;;;5001457;28;20269;-80
2022/08/04 08:09:20;;;;;;;373.63;353.35;;;34.30;61.80;;;;;;5023092;28;20180;-80
2022/08/04 08:11:47;;;;;;;375.27;354.58;;;34.80;60.90;;;;;;5002309;28;20605;-81
2022/08/04 08:14:15;;;;;;;358.42;339.52;;;35.30;59.80;;;;;;5015144;28;20568;-82
2022/08/04 08:16:41;;;;;;;351.73;333.38;;;35.40;59.00;;;;;;4997261;28;20183;-82
2022/08/04 08:19:07;;;;;;;288.00;273.27;;;35.60;59.60;;;;;;4996794;28;20584;-82
2022/08/04 08:21:34;;;;;;;240.18;228.13;;;35.80;58.70;;;;;;4997266;28;20176;-81
2022/08/04 08:24:00;;;;;;;235.65;223.95;;;35.70;58.20;;;;;;5014899;28;20215;-82
2022/08/04 08:26:26;;;;;;;188.75;179.73;;;36.10;58.70;;;;;;5015698;28;20179;-81
2022/08/04 08:28:53;;;;;;;135.82;129.32;;;36.60;58.40;;;;;;5015118;28;20180;-82
2022/08/04 08:31:19;;;;;;;111.53;106.28;;;36.70;56.60;;;;;;4998734;28;20194;-82
2022/08/04 08:33:47;;;;;;;134.20;127.10;;;37.00;55.60;;;;;;5003269;28;20195;-82
2022/08/04 08:36:32;;;;;;;127.13;120.97;;;36.80;54.80;;;;;;5020351;28;20613;-82
2022/08/04 08:39:13;;;;;;;127.25;120.93;;;37.00;55.10;;;;;;5001337;28;20210;-81
2022/08/04 08:41:58;;;;;;;131.98;125.43;;;37.30;54.50;;;;;;5002023;28;20187;-82
2022/08/04 08:44:55;;;;;;;116.85;111.07;;;37.70;54.20;;;;;;5019232;28;20187;-81
2022/08/04 08:48:10;;;;;;;131.90;125.57;;;37.50;52.60;;;;;;5010339;28;20614;-82
2022/08/04 08:50:51;;;;;;;140.18;133.40;;;37.30;53.20;;;;;;4975588;28;20194;-81
2022/08/04 08:53:38;;;;;;;127.18;121.03;;;37.40;53.10;;;;;;5020849;28;20580;-82
2022/08/04 08:56:19;;;;;;;102.50;97.32;;;37.80;52.70;;;;;;5023613;28;20680;-82
2022/08/04 08:58:48;;;;;;;74.72;71.15;;;38.00;51.90;;;;;;5019860;28;20211;-82
2022/08/04 09:01:54;;;;;;;57.42;54.58;;;38.00;51.30;;;;;;5009706;28;20644;-81
2022/08/04 09:04:48;;;;;;;42.40;39.75;;;38.20;50.20;;;;;;5020932;28;20200;-81
2022/08/04 09:07:45;;;;;;;83.70;79.63;;;38.20;49.40;;;;;;5000173;28;20531;-82
2022/08/04 09:10:27;;;;;;;97.40;92.55;;;38.20;51.00;;;;;;5017523;28;20188;-82
2022/08/04 09:13:04;;;;;;;66.78;63.42;;;38.50;49.80;;;;;;5000937;28;20625;-82
2022/08/04 09:16:10;;;;;;;44.72;42.58;;;38.70;49.40;;;;;;5000608;28;20718;-82
2022/08/04 09:18:55;;;;;;;49.58;47.22;;;38.60;49.00;;;;;;5005780;28;20269;-81
2022/08/04 09:21:46;;;;;;;48.95;46.25;;;38.30;48.60;;;;;;5017857;28;20188;-81
2022/08/04 09:24:23;;;;;;;89.32;85.03;;;38.20;49.40;;;;;;5019182;28;20711;-81
2022/08/04 09:26:57;;;;;;;59.58;56.53;;;38.50;50.20;;;;;;4999974;28;20184;-81
2022/08/04 09:29:50;;;;;;;62.55;59.53;;;38.60;48.80;;;;;;5002681;28;20262;-83
2022/08/04 09:32:22;;;;;;;82.32;78.22;;;38.60;49.20;;;;;;5024271;28;20183;-82
2022/08/04 09:35:23;;;;;;;55.58;52.60;;;38.50;50.10;;;;;;5026171;28;20187;-80
2022/08/04 09:38:13;;;;;;;35.92;34.08;;;38.30;48.80;;;;;;4985354;28;20191;-81
2022/08/04 09:41:06;;;;;;;42.70;40.50;;;38.10;47.80;;;;;;5035940;28;20234;-81
2022/08/04 09:43:46;;;;;;;52.88;50.22;;;38.10;48.00;;;;;;5031670;28;20200;-81
2022/08/04 09:46:27;;;;;;;54.00;51.30;;;38.20;48.20;;;;;;5000746;28;20192;-81
2022/08/04 09:49:06;;;;;;;42.22;40.22;;;38.30;49.00;;;;;;5016715;28;20624;-82
2022/08/04 09:51:52;;;;;;;17.75;16.92;;;38.50;48.00;;;;;;5016625;28;20325;-81
2022/08/04 09:54:39;;;;;;;12.00;11.35;;;39.10;45.90;;;;;;4999179;28;20199;-81
2022/08/04 09:57:43;;;;;;;7.32;6.82;;;39.10;46.30;;;;;;5015946;28;20212;-81
2022/08/04 10:00:12;;;;;;;3.75;3.53;;;39.50;45.40;;;;;;5021676;28;20207;-80
2022/08/04 10:02:54;;;;;;;3.63;3.33;;;39.70;45.80;;;;;;5006304;28;20199;-81
2022/08/04 10:05:24;;;;;;;3.70;3.50;;;39.80;44.90;;;;;;5000122;28;20175;-81
2022/08/04 10:08:17;;;;;;;3.50;3.40;;;40.10;44.30;;;;;;5016270;28;20183;-81
2022/08/04 10:10:51;;;;;;;3.50;3.20;;;40.40;43.30;;;;;;5000090;28;20183;-81
2022/08/04 10:13:40;;;;;;;3.88;3.15;;;40.20;43.80;;;;;;5000088;28;20230;-82
2022/08/04 10:16:27;;;;;;;3.10;2.90;;;40.90;44.10;;;;;;4978609;28;20195;-82
2022/08/04 10:19:30;;;;;;;2.88;2.78;;;41.80;42.30;;;;;;5017329;28;20218;-81
2022/08/04 10:22:17;;;;;;;3.10;2.92;;;42.00;40.20;;;;;;5028286;28;20191;-81
2022/08/04 10:24:55;;;;;;;3.17;2.92;;;41.20;41.10;;;;;;5017371;28;20202;-82
2022/08/04 10:27:35;;;;;;;6.18;3.20;;;41.30;41.70;;;;;;4998760;28;20226;-83
2022/08/04 10:30:12;;;;;;;2.95;2.75;;;41.80;41.80;;;;;;4999055;28;20187;-80
2022/08/04 10:32:54;;;;;;;4.88;2.58;;;41.70;42.00;;;;;;4998909;28;20294;-80
2022/08/04 10:35:26;;;;;;;2.85;2.65;;;42.00;40.40;;;;;;5016914;28;20183;-83
2022/08/04 10:38:17;;;;;;;3.50;2.42;;;41.80;40.30;;;;;;5016195;28;20191;-82
2022/08/04 10:40:47;;;;;;;2.80;2.70;;;42.00;40.40;;;;;;5016355;28;20254;-80
2022/08/04 10:43:18;;;;;;;2.75;2.55;;;42.00;40.40;;;;;;4998649;28;20677;-80
2022/08/04 10:46:15;;;;;;;2.90;2.78;;;41.20;40.80;;;;;;4998248;28;20565;-81
2022/08/04 10:49:02;;;;;;;2.70;2.60;;;40.80;41.60;;;;;;5016639;28;20203;-82
2022/08/04 10:51:53;;;;;;;2.70;2.60;;;41.50;41.00;;;;;;5016771;28;20671;-82
2022/08/04 10:54:48;;;;;;;3.00;2.70;;;41.50;41.60;;;;;;5014543;28;20203;-81
2022/08/04 10:57:27;;;;;;;2.72;2.63;;;40.50;41.60;;;;;;4998859;28;20192;-81
2022/08/04 11:00:00;;;;;;;3.13;2.92;;;40.10;41.10;;;;;;5019100;28;20215;-80
2022/08/04 11:02:45;;;;;;;2.80;2.63;;;40.10;41.20;;;;;;5023650;28;20249;-81
2022/08/04 11:05:30;;;;;;;5.15;2.58;;;40.50;41.10;;;;;;4999375;28;20234;-81
2022/08/04 11:08:02;;;;;;;2.70;2.50;;;41.20;39.50;;;;;;5024778;28;20176;-81
2022/08/04 11:10:31;;;;;;;2.58;2.47;;;41.30;39.50;;;;;;5019350;28;20179;-82
2022/08/04 11:13:09;;;;;;;2.60;2.50;;;41.40;40.20;;;;;;4999589;28;20669;-81
2022/08/04 11:15:38;;;;;;;3.08;2.88;;;41.40;39.10;;;;;;4999350;28;20183;-81
2022/08/04 11:18:12;;;;;;;2.67;2.50;;;41.90;37.20;;;;;;5014711;28;20191;-81
2022/08/04 11:20:46;;;;;;;2.88;2.78;;;42.30;36.40;;;;;;4999096;28;20207;-80
2022/08/04 11:23:16;;;;;;;3.58;3.47;;;42.30;36.20;;;;;;5015828;28;20211;-80
2022/08/04 11:26:06;;;;;;;3.40;3.20;;;42.90;35.60;;;;;;5016102;28;20191;-80
2022/08/04 11:28:57;;;;;;;3.78;3.47;;;43.10;35.80;;;;;;5017122;28;20191;-82
2022/08/04 11:31:29;;;;;;;4.22;4.03;;;42.80;35.50;;;;;;5030938;28;20179;-81
2022/08/04 11:34:28;;;;;;;3.40;3.30;;;42.70;35.70;;;;;;5001003;28;20616;-81
2022/08/04 11:37:13;;;;;;;3.97;3.58;;;42.40;35.20;;;;;;4957486;28;20184;-81
2022/08/04 11:39:56;;;;;;;3.38;3.20;;;42.30;35.40;;;;;;4998599;28;20239;-81
2022/08/04 11:42:26;;;;;;;4.47;4.22;;;42.50;34.90;;;;;;5016057;28;20773;-81
2022/08/04 11:45:03;;;;;;;4.47;4.18;;;42.70;34.30;;;;;;5019129;28;20180;-80
2022/08/04 11:47:38;;;;;;;3.50;3.40;;;43.00;35.10;;;;;;5020625;28;20275;-81
2022/08/04 11:50:41;;;;;;;4.03;3.90;;;43.20;35.10;;;;;;5024017;28;20190;-81
2022/08/04 11:53:15;;;;;;;4.00;3.00;;;43.30;35.30;;;;;;4997218;28;20217;-81
2022/08/04 11:55:43;;;;;;;3.45;3.15;;;42.90;34.20;;;;;;5016015;28;20164;-81
2022/08/04 11:58:09;;;;;;;3.00;2.75;;;43.30;34.00;;;;;;5016272;28;20644;-81
2022/08/04 12:00:41;;;;;;;3.10;2.88;;;43.50;33.60;;;;;;5016551;28;20219;-81
2022/08/04 12:03:19;;;;;;;3.00;2.90;;;44.00;32.60;;;;;;5015757;28;20199;-81
2022/08/04 12:05:59;;;;;;;3.03;2.92;;;44.50;32.00;;;;;;5015521;28;20187;-81
2022/08/04 12:08:39;;;;;;;2.88;2.78;;;44.20;32.20;;;;;;4996702;28;20183;-81
2022/08/04 12:11:20;;;;;;;4.55;3.20;;;44.00;31.90;;;;;;5015972;28;20628;-80
2022/08/04 12:14:02;;;;;;;2.92;2.83;;;44.20;32.10;;;;;;5014962;28;20207;-82
2022/08/04 12:16:58;;;;;;;3.13;2.70;;;44.00;31.90;;;;;;5015913;28;20187;-81
2022/08/04 12:20:04;;;;;;;3.28;3.08;;;43.50;31.60;;;;;;5002100;28;20246;-81
2022/08/04 12:22:34;;;;;;;3.10;2.90;;;43.20;32.10;;;;;;5015459;28;20211;-81
2022/08/04 12:25:05;;;;;;;2.85;2.75;;;44.00;31.70;;;;;;5017624;28;20241;-82
2022/08/04 12:27:58;;;;;;;2.90;2.70;;;43.90;32.40;;;;;;4999160;28;20194;-80
2022/08/04 12:30:29;;;;;;;3.00;2.90;;;44.10;33.20;;;;;;5005377;28;20183;-81
2022/08/04 12:33:04;;;;;;;3.00;2.78;;;44.70;32.40;;;;;;5018150;28;20210;-82
2022/08/04 12:35:39;;;;;;;4.53;2.40;;;44.80;30.80;;;;;;5017256;28;20191;-81
2022/08/04 12:38:09;;;;;;;3.13;3.03;;;45.30;30.00;;;;;;4999560;28;20187;-81
2022/08/04 12:40:44;;;;;;;3.28;3.03;;;46.40;29.50;;;;;;5000998;28;20242;-81
2022/08/04 12:43:16;;;;;;;3.65;3.25;;;46.10;30.20;;;;;;5019725;28;20217;-82
2022/08/04 12:45:49;;;;;;;3.45;3.25;;;46.50;29.70;;;;;;5003424;28;20263;-80
2022/08/04 12:48:17;;;;;;;4.63;4.32;;;45.70;29.80;;;;;;5015039;28;20183;-82
2022/08/04 12:50:54;;;;;;;6.78;6.38;;;46.30;30.30;;;;;;5025373;28;20180;-82
2022/08/04 12:53:26;;;;;;;7.20;6.88;;;46.20;29.70;;;;;;5017266;28;20298;-81
2022/08/04 12:55:53;;;;;;;9.15;8.70;;;46.50;29.50;;;;;;4998874;28;20243;-81
2022/08/04 12:58:23;;;;;;;12.90;12.30;;;46.80;28.90;;;;;;4997593;28;20373;-81
2022/08/04 13:01:18;;;;;;;15.55;14.75;;;47.10;28.60;;;;;;5015580;28;20208;-81
2022/08/04 13:03:52;;;;;;;10.77;10.27;;;46.20;29.30;;;;;;5008582;28;20688;-80
2022/08/04 13:06:27;;;;;;;6.30;5.80;;;46.00;29.30;;;;;;4997841;28;20187;-82
2022/08/04 13:08:54;;;;;;;5.70;5.45;;;45.50;30.60;;;;;;4996137;28;20302;-81
2022/08/04 13:11:21;;;;;;;11.63;11.10;;;45.60;29.70;;;;;;4999300;28;20180;-80
2022/08/04 13:13:54;;;;;;;10.38;9.68;;;46.50;28.90;;;;;;5003363;28;20206;-82
2022/08/04 13:16:31;;;;;;;11.85;11.30;;;47.10;29.40;;;;;;4999950;28;20907;-82
2022/08/04 13:18:58;;;;;;;12.93;12.20;;;47.10;29.70;;;;;;5002300;28;20191;-80
2022/08/04 13:21:26;;;;;;;13.27;12.55;;;46.60;30.00;;;;;;5001243;28;20603;-80
2022/08/04 13:23:57;;;;;;;12.90;12.27;;;45.90;29.60;;;;;;5017789;23;20267;-84